createdAt,value
2023-11-06T00:00:48.371Z,11.43
2023-11-06T00:01:48.373Z,11.43
2023-11-06T00:02:48.497Z,11.45
2023-11-06T00:03:48.356Z,11.43
2023-11-06T00:04:48.388Z,11.45
2023-11-06T00:05:48.369Z,11.44
2023-11-06T00:06:48.424Z,11.44
2023-11-06T00:07:48.400Z,11.44
2023-11-06T00:08:48.409Z,11.48
2023-11-06T00:09:48.294Z,11.49
2023-11-06T00:10:48.527Z,11.48
2023-11-06T00:11:48.271Z,11.45
2023-11-06T00:12:49.876Z,11.44
2023-11-06T00:13:48.298Z,11.45
2023-11-06T00:14:48.227Z,11.44
2023-11-06T00:15:48.231Z,11.43
2023-11-06T00:16:48.225Z,11.45
2023-11-06T00:17:48.195Z,11.45
2023-11-06T00:18:48.290Z,11.45
2023-11-06T00:19:48.225Z,11.45
2023-11-06T00:20:48.182Z,11.49
2023-11-06T00:21:48.222Z,11.45
2023-11-06T00:22:48.189Z,11.44
2023-11-06T00:23:48.232Z,11.45
2023-11-06T00:24:48.134Z,11.48
2023-11-06T00:25:48.248Z,11.49
2023-11-06T00:26:48.120Z,11.44
2023-11-06T00:27:48.095Z,11.48
2023-11-06T00:28:48.119Z,11.45
2023-11-06T00:29:48.047Z,11.45
2023-11-06T00:30:48.077Z,11.44
2023-11-06T00:31:48.059Z,11.49
2023-11-06T00:32:48.082Z,11.49
2023-11-06T00:33:48.099Z,11.51
2023-11-06T00:34:48.055Z,11.51
2023-11-06T00:35:48.005Z,11.51
2023-11-06T00:36:48.108Z,11.48
2023-11-06T00:37:48.067Z,11.45
2023-11-06T00:38:47.957Z,11.43
2023-11-06T00:39:47.963Z,11.45
2023-11-06T00:40:48.749Z,11.45
2023-11-06T00:41:47.936Z,11.45
2023-11-06T00:42:47.968Z,11.48
2023-11-06T00:43:47.980Z,11.48
2023-11-06T00:44:47.915Z,11.45
2023-11-06T00:45:47.882Z,11.45
2023-11-06T00:46:48.955Z,11.44
2023-11-06T00:47:47.906Z,11.48
2023-11-06T00:48:47.920Z,11.43
2023-11-06T00:49:47.885Z,11.48
2023-11-06T00:50:48.086Z,11.49
2023-11-06T00:51:47.863Z,11.49
2023-11-06T00:52:48.563Z,11.49
2023-11-06T00:53:47.833Z,11.49
2023-11-06T00:54:47.991Z,11.48
2023-11-06T00:55:47.771Z,11.45
2023-11-06T00:56:47.794Z,11.48
2023-11-06T00:57:47.761Z,11.48
2023-11-06T00:58:47.733Z,11.48
2023-11-06T00:59:47.765Z,11.51
2023-11-06T01:00:47.787Z,11.49
2023-11-06T01:01:47.763Z,11.49
2023-11-06T01:02:47.725Z,11.51
2023-11-06T01:03:47.844Z,11.52
2023-11-06T01:04:47.729Z,11.55
2023-11-06T01:05:47.701Z,11.53
2023-11-06T01:06:48.006Z,11.53
2023-11-06T01:07:47.794Z,11.53
2023-11-06T01:08:47.634Z,11.52
2023-11-06T01:09:47.747Z,11.51
2023-11-06T01:10:47.627Z,11.52
2023-11-06T01:11:47.671Z,11.52
2023-11-06T01:12:47.583Z,11.52
2023-11-06T01:13:47.664Z,11.55
2023-11-06T01:14:47.625Z,11.55
2023-11-06T01:15:47.569Z,11.53
2023-11-06T01:16:47.529Z,11.55
2023-11-06T01:17:47.672Z,11.56
2023-11-06T01:18:47.626Z,11.53
2023-11-06T01:19:47.555Z,11.55
2023-11-06T01:20:47.497Z,11.55
2023-11-06T01:21:47.522Z,11.52
2023-11-06T01:22:47.489Z,11.53
2023-11-06T01:23:47.450Z,11.56
2023-11-06T01:24:47.427Z,11.56
2023-11-06T01:25:47.473Z,11.58
2023-11-06T01:26:47.439Z,11.55
2023-11-06T01:27:47.399Z,11.55
2023-11-06T01:28:47.576Z,11.53
2023-11-06T01:29:47.439Z,11.55
2023-11-06T01:30:47.405Z,11.55
2023-11-06T01:31:47.374Z,11.58
2023-11-06T01:32:47.418Z,11.55
2023-11-06T01:33:47.428Z,11.55
2023-11-06T01:34:47.432Z,11.55
2023-11-06T01:35:47.306Z,11.56
2023-11-06T01:36:47.306Z,11.59
2023-11-06T01:37:47.336Z,11.58
2023-11-06T01:38:47.259Z,11.58
2023-11-06T01:39:47.289Z,11.55
2023-11-06T01:40:47.305Z,11.55
2023-11-06T01:41:47.268Z,11.56
2023-11-06T01:42:47.289Z,11.56
2023-11-06T01:43:47.281Z,11.59
2023-11-06T01:44:47.220Z,11.58
2023-11-06T01:45:47.239Z,11.58
2023-11-06T01:46:47.276Z,11.59
2023-11-06T01:47:47.302Z,11.59
2023-11-06T01:48:47.277Z,11.55
2023-11-06T01:49:47.297Z,11.58
2023-11-06T01:50:47.320Z,11.56
2023-11-06T01:51:47.161Z,11.55
2023-11-06T01:52:47.180Z,11.56
2023-11-06T01:53:47.152Z,11.60
2023-11-06T01:54:47.122Z,11.55
2023-11-06T01:55:47.157Z,11.59
2023-11-06T01:56:47.299Z,11.56
2023-11-06T01:57:47.206Z,11.58
2023-11-06T01:58:47.171Z,11.56
2023-11-06T01:59:47.156Z,11.59
2023-11-06T02:00:47.050Z,11.58
2023-11-06T02:01:47.472Z,11.58
2023-11-06T02:02:47.081Z,11.58
2023-11-06T02:03:47.183Z,11.58
2023-11-06T02:04:47.152Z,11.58
2023-11-06T02:05:47.030Z,11.59
2023-11-06T02:06:47.044Z,11.60
2023-11-06T02:07:47.187Z,11.60
2023-11-06T02:08:47.035Z,11.58
2023-11-06T02:09:47.130Z,11.58
2023-11-06T02:10:47.063Z,11.59
2023-11-06T02:11:47.151Z,11.58
2023-11-06T02:12:47.054Z,11.60
2023-11-06T02:13:47.025Z,11.60
2023-11-06T02:14:47.063Z,11.58
2023-11-06T02:15:47.030Z,11.58
2023-11-06T02:16:46.962Z,11.56
2023-11-06T02:17:47.010Z,11.53
2023-11-06T02:18:46.838Z,11.53
2023-11-06T02:19:46.996Z,11.53
2023-11-06T02:20:46.890Z,11.52
2023-11-06T02:21:53.706Z,11.56
2023-11-06T02:22:47.828Z,11.55
2023-11-06T02:23:47.369Z,11.52
2023-11-06T02:24:46.757Z,11.52
2023-11-06T02:25:46.826Z,11.53
2023-11-06T02:26:46.728Z,11.51
2023-11-06T02:27:46.798Z,11.55
2023-11-06T02:28:46.903Z,11.52
2023-11-06T02:29:46.916Z,11.52
2023-11-06T02:30:46.650Z,11.51
2023-11-06T02:31:46.679Z,11.49
2023-11-06T02:32:47.242Z,11.52
2023-11-06T02:33:46.674Z,11.51
2023-11-06T02:34:46.891Z,11.51
2023-11-06T02:35:46.620Z,11.51
2023-11-06T02:36:46.644Z,11.51
2023-11-06T02:37:46.781Z,11.52
2023-11-06T02:38:46.626Z,11.52
2023-11-06T02:39:46.627Z,11.53
2023-11-06T02:40:46.672Z,11.53
2023-11-06T02:41:46.675Z,11.52
2023-11-06T02:42:47.600Z,11.53
2023-11-06T02:43:46.689Z,11.52
2023-11-06T02:44:46.491Z,11.56
2023-11-06T02:45:46.523Z,11.53
2023-11-06T02:46:46.686Z,11.53
2023-11-06T02:47:46.557Z,11.53
2023-11-06T02:48:46.556Z,11.55
2023-11-06T02:49:47.243Z,11.56
2023-11-06T02:50:46.427Z,11.55
2023-11-06T02:51:46.424Z,11.56
2023-11-06T02:52:46.690Z,11.55
2023-11-06T02:53:46.384Z,11.56
2023-11-06T02:54:46.375Z,11.55
2023-11-06T02:55:46.466Z,11.58
2023-11-06T02:56:46.381Z,11.56
2023-11-06T02:57:46.413Z,11.55
2023-11-06T02:58:46.457Z,11.56
2023-11-06T02:59:46.358Z,11.56
2023-11-06T03:00:46.345Z,11.56
2023-11-06T03:01:46.364Z,11.58
2023-11-06T03:02:46.418Z,11.56
2023-11-06T03:03:46.378Z,11.56
2023-11-06T03:04:46.329Z,11.56
2023-11-06T03:05:46.409Z,11.56
2023-11-06T03:06:46.298Z,11.56
2023-11-06T03:07:46.266Z,11.56
2023-11-06T03:08:46.267Z,11.58
2023-11-06T03:09:46.286Z,11.55
2023-11-06T03:10:46.243Z,11.55
2023-11-06T03:11:46.278Z,11.58
2023-11-06T03:12:46.730Z,11.56
2023-11-06T03:13:46.248Z,11.59
2023-11-06T03:14:46.207Z,11.56
2023-11-06T03:15:46.180Z,11.59
2023-11-06T03:16:46.230Z,11.58
2023-11-06T03:17:46.279Z,11.58
2023-11-06T03:18:46.209Z,11.53
2023-11-06T03:19:46.206Z,11.56
2023-11-06T03:20:46.137Z,11.58
2023-11-06T03:21:46.088Z,11.58
2023-11-06T03:22:46.079Z,11.58
2023-11-06T03:23:46.050Z,11.59
2023-11-06T03:24:46.083Z,11.63
2023-11-06T03:25:46.074Z,11.62
2023-11-06T03:26:46.094Z,11.59
2023-11-06T03:27:46.010Z,11.56
2023-11-06T03:28:46.012Z,11.58
2023-11-06T03:29:46.008Z,11.58
2023-11-06T03:30:46.012Z,11.58
2023-11-06T03:31:46.013Z,11.58
2023-11-06T03:32:46.043Z,11.56
2023-11-06T03:33:46.000Z,11.59
2023-11-06T03:34:45.958Z,11.58
2023-11-06T03:35:45.911Z,11.60
2023-11-06T03:36:46.016Z,11.60
2023-11-06T03:37:45.945Z,11.63
2023-11-06T03:38:45.880Z,11.60
2023-11-06T03:39:45.904Z,11.60
2023-11-06T03:40:45.915Z,11.62
2023-11-06T03:41:46.027Z,11.62
2023-11-06T03:42:45.832Z,11.59
2023-11-06T03:43:45.908Z,11.59
2023-11-06T03:44:45.872Z,11.59
2023-11-06T03:45:45.859Z,11.58
2023-11-06T03:46:45.931Z,11.59
2023-11-06T03:47:45.885Z,11.59
2023-11-06T03:48:45.916Z,11.58
2023-11-06T03:49:45.796Z,11.60
2023-11-06T03:50:45.883Z,11.58
2023-11-06T03:51:45.794Z,11.58
2023-11-06T03:52:45.752Z,11.56
2023-11-06T03:53:45.768Z,11.58
2023-11-06T03:54:46.397Z,11.58
2023-11-06T03:55:45.739Z,11.58
2023-11-06T03:56:45.878Z,11.58
2023-11-06T03:57:45.914Z,11.58
2023-11-06T03:58:45.693Z,11.55
2023-11-06T03:59:45.693Z,11.58
2023-11-06T04:00:45.676Z,11.55
2023-11-06T04:01:45.633Z,11.56
2023-11-06T04:02:45.861Z,11.56
2023-11-06T04:03:46.272Z,11.58
2023-11-06T04:04:45.925Z,11.58
2023-11-06T04:05:45.655Z,11.58
2023-11-06T04:06:45.608Z,11.56
2023-11-06T04:07:45.609Z,11.59
2023-11-06T04:08:46.624Z,11.58
2023-11-06T04:09:45.545Z,11.56
2023-11-06T04:10:45.563Z,11.56
2023-11-06T04:11:45.569Z,11.58
2023-11-06T04:12:45.740Z,11.56
2023-11-06T04:13:45.557Z,11.56
2023-11-06T04:14:45.559Z,11.60
2023-11-06T04:15:45.521Z,11.62
2023-11-06T04:16:45.514Z,11.60
2023-11-06T04:17:45.521Z,11.59
2023-11-06T04:18:45.577Z,11.56
2023-11-06T04:19:45.424Z,11.58
2023-11-06T04:20:45.565Z,11.58
2023-11-06T04:21:45.431Z,11.58
2023-11-06T04:22:45.559Z,11.59
2023-11-06T04:23:45.406Z,11.58
2023-11-06T04:24:45.447Z,11.59
2023-11-06T04:25:45.448Z,11.58
2023-11-06T04:26:45.454Z,11.58
2023-11-06T04:27:45.389Z,11.56
2023-11-06T04:28:45.587Z,11.56
2023-11-06T04:29:45.386Z,11.59
2023-11-06T04:30:45.398Z,11.56
2023-11-06T04:31:45.370Z,11.59
2023-11-06T04:32:45.326Z,11.53
2023-11-06T04:33:45.369Z,11.58
2023-11-06T04:34:45.300Z,11.55
2023-11-06T04:35:45.328Z,11.56
2023-11-06T04:36:45.294Z,11.58
2023-11-06T04:37:45.297Z,11.59
2023-11-06T04:38:45.266Z,11.56
2023-11-06T04:39:45.292Z,11.58
2023-11-06T04:40:45.259Z,11.56
2023-11-06T04:41:45.220Z,11.56
2023-11-06T04:42:45.194Z,11.55
2023-11-06T04:43:45.201Z,11.56
2023-11-06T04:44:45.487Z,11.58
2023-11-06T04:45:45.206Z,11.56
2023-11-06T04:46:45.317Z,11.56
2023-11-06T04:47:45.336Z,11.55
2023-11-06T04:48:45.194Z,11.53
2023-11-06T04:49:45.235Z,11.55
2023-11-06T04:50:45.146Z,11.53
2023-11-06T04:51:45.093Z,11.55
2023-11-06T04:52:45.146Z,11.55
2023-11-06T04:53:45.178Z,11.56
2023-11-06T04:54:45.084Z,11.53
2023-11-06T04:55:45.043Z,11.58
2023-11-06T04:56:45.033Z,11.56
2023-11-06T04:57:45.135Z,11.56
2023-11-06T04:58:45.111Z,11.55
2023-11-06T04:59:45.016Z,11.52
2023-11-06T05:00:45.053Z,11.52
2023-11-06T05:01:45.009Z,11.52
2023-11-06T05:02:45.075Z,11.51
2023-11-06T05:03:45.127Z,11.53
2023-11-06T05:04:45.089Z,11.52
2023-11-06T05:05:45.101Z,11.53
2023-11-06T05:06:44.937Z,11.49
2023-11-06T05:07:45.029Z,11.49
2023-11-06T05:08:44.917Z,11.49
2023-11-06T05:09:45.007Z,11.48
2023-11-06T05:10:44.898Z,11.44
2023-11-06T05:11:44.935Z,11.44
2023-11-06T05:12:44.898Z,11.48
2023-11-06T05:13:44.881Z,11.49
2023-11-06T05:14:44.870Z,11.49
2023-11-06T05:15:44.814Z,11.45
2023-11-06T05:16:44.815Z,11.45
2023-11-06T05:17:45.056Z,11.49
2023-11-06T05:18:44.905Z,11.48
2023-11-06T05:19:45.576Z,11.43
2023-11-06T05:20:44.891Z,11.48
2023-11-06T05:21:44.770Z,11.44
2023-11-06T05:22:44.782Z,11.41
2023-11-06T05:23:44.752Z,11.40
2023-11-06T05:24:44.753Z,11.38
2023-11-06T05:25:44.726Z,11.40
2023-11-06T05:26:44.745Z,11.34
2023-11-06T05:27:44.791Z,11.33
2023-11-06T05:28:44.708Z,11.30
2023-11-06T05:29:44.767Z,11.30
2023-11-06T05:30:44.814Z,11.26
2023-11-06T05:31:44.702Z,11.26
2023-11-06T05:32:44.808Z,11.25
2023-11-06T05:33:44.765Z,11.25
2023-11-06T05:34:44.673Z,11.25
2023-11-06T05:35:44.767Z,11.23
2023-11-06T05:36:44.669Z,11.20
2023-11-06T05:37:44.616Z,11.18
2023-11-06T05:38:44.645Z,11.16
2023-11-06T05:39:44.622Z,11.15
2023-11-06T05:40:44.622Z,11.13
2023-11-06T05:41:44.666Z,11.10
2023-11-06T05:42:44.617Z,11.10
2023-11-06T05:43:44.608Z,11.07
2023-11-06T05:44:44.789Z,11.05
2023-11-06T05:45:44.653Z,11.05
2023-11-06T05:46:44.506Z,11.04
2023-11-06T05:47:44.508Z,11.05
2023-11-06T05:48:44.477Z,11.01
2023-11-06T05:49:44.512Z,10.98
2023-11-06T05:50:44.452Z,10.94
2023-11-06T05:51:44.633Z,10.95
2023-11-06T05:52:44.484Z,10.94
2023-11-06T05:53:44.611Z,10.94
2023-11-06T05:54:44.618Z,10.95
2023-11-06T05:55:44.495Z,10.94
2023-11-06T05:56:44.410Z,10.94
2023-11-06T05:57:44.921Z,10.94
2023-11-06T05:58:44.362Z,10.94
2023-11-06T05:59:44.469Z,10.90
2023-11-06T06:00:44.429Z,10.86
2023-11-06T06:01:44.360Z,10.87
2023-11-06T06:02:44.389Z,10.84
2023-11-06T06:03:44.350Z,10.87
2023-11-06T06:04:44.344Z,10.87
2023-11-06T06:05:44.555Z,10.87
2023-11-06T06:06:44.500Z,10.86
2023-11-06T06:07:44.304Z,10.84
2023-11-06T06:08:44.355Z,10.82
2023-11-06T06:09:44.317Z,10.80
2023-11-06T06:10:44.504Z,10.80
2023-11-06T06:11:44.197Z,10.79
2023-11-06T06:12:44.282Z,10.79
2023-11-06T06:13:44.171Z,10.80
2023-11-06T06:14:44.454Z,10.79
2023-11-06T06:15:44.174Z,10.83
2023-11-06T06:16:44.214Z,10.77
2023-11-06T06:17:44.245Z,10.76
2023-11-06T06:18:44.247Z,10.72
2023-11-06T06:19:44.117Z,10.72
2023-11-06T06:20:44.148Z,10.72
2023-11-06T06:21:44.160Z,10.75
2023-11-06T06:22:44.129Z,10.75
2023-11-06T06:23:44.343Z,10.75
2023-11-06T06:24:44.105Z,10.79
2023-11-06T06:25:44.157Z,10.77
2023-11-06T06:26:44.222Z,10.72
2023-11-06T06:27:44.029Z,10.75
2023-11-06T06:28:44.035Z,10.72
2023-11-06T06:29:44.496Z,10.75
2023-11-06T06:30:44.063Z,10.69
2023-11-06T06:31:44.025Z,10.71
2023-11-06T06:32:44.550Z,10.71
2023-11-06T06:33:44.065Z,10.71
2023-11-06T06:34:44.107Z,10.69
2023-11-06T06:35:43.968Z,10.71
2023-11-06T06:36:43.968Z,10.69
2023-11-06T06:37:43.985Z,10.71
2023-11-06T06:38:43.974Z,10.72
2023-11-06T06:39:43.957Z,10.71
2023-11-06T06:40:43.924Z,10.71
2023-11-06T06:41:43.905Z,10.72
2023-11-06T06:42:43.920Z,10.69
2023-11-06T06:43:43.985Z,10.72
2023-11-06T06:44:43.873Z,10.72
2023-11-06T06:45:44.581Z,10.75
2023-11-06T06:46:43.856Z,10.71
2023-11-06T06:47:43.893Z,10.68
2023-11-06T06:48:43.952Z,10.69
2023-11-06T06:49:43.929Z,10.75
2023-11-06T06:50:43.941Z,10.71
2023-11-06T06:51:43.837Z,10.72
2023-11-06T06:52:43.885Z,10.72
2023-11-06T06:53:43.823Z,10.75
2023-11-06T06:54:43.781Z,10.76
2023-11-06T06:55:43.804Z,10.80
2023-11-06T06:56:43.741Z,10.82
2023-11-06T06:57:43.751Z,10.86
2023-11-06T06:58:43.789Z,10.86
2023-11-06T06:59:43.682Z,10.89
2023-11-06T07:00:43.692Z,10.92
2023-11-06T07:01:43.685Z,10.94
2023-11-06T07:02:43.772Z,10.95
2023-11-06T07:03:43.752Z,10.97
2023-11-06T07:04:43.646Z,10.98
2023-11-06T07:05:43.831Z,11.01
2023-11-06T07:06:43.714Z,11.00
2023-11-06T07:07:43.647Z,11.02
2023-11-06T07:08:43.677Z,11.07
2023-11-06T07:09:43.605Z,11.10
2023-11-06T07:10:43.582Z,11.13
2023-11-06T07:11:43.592Z,11.13
2023-11-06T07:12:43.610Z,11.16
2023-11-06T07:13:43.589Z,11.19
2023-11-06T07:14:43.582Z,11.20
2023-11-06T07:15:43.495Z,11.22
2023-11-06T07:16:43.561Z,11.22
2023-11-06T07:17:43.550Z,11.22
2023-11-06T07:18:43.530Z,11.23
2023-11-06T07:19:43.504Z,11.26
2023-11-06T07:20:43.507Z,11.31
2023-11-06T07:21:43.480Z,11.40
2023-11-06T07:22:43.420Z,11.40
2023-11-06T07:23:43.485Z,11.48
2023-11-06T07:24:43.365Z,11.51
2023-11-06T07:25:43.436Z,11.51
2023-11-06T07:26:43.501Z,11.52
2023-11-06T07:27:43.413Z,11.53
2023-11-06T07:28:43.434Z,11.56
2023-11-06T07:29:43.379Z,11.58
2023-11-06T07:30:43.379Z,11.56
2023-11-06T07:31:43.356Z,11.60
2023-11-06T07:32:43.459Z,11.59
2023-11-06T07:33:43.373Z,11.59
2023-11-06T07:34:43.300Z,11.55
2023-11-06T07:35:43.345Z,11.53
2023-11-06T07:36:43.260Z,11.53
2023-11-06T07:37:43.252Z,11.53
2023-11-06T07:38:43.264Z,11.53
2023-11-06T07:39:43.295Z,11.58
2023-11-06T07:40:43.237Z,11.59
2023-11-06T07:41:43.279Z,11.59
2023-11-06T07:42:43.263Z,11.56
2023-11-06T07:43:43.197Z,11.59
2023-11-06T07:44:43.204Z,11.60
2023-11-06T07:45:43.189Z,11.65
2023-11-06T07:46:43.218Z,11.65
2023-11-06T07:47:43.258Z,11.68
2023-11-06T07:48:43.226Z,11.71
2023-11-06T07:49:43.175Z,11.74
2023-11-06T07:50:43.166Z,11.77
2023-11-06T07:51:43.188Z,11.78
2023-11-06T07:52:43.170Z,11.78
2023-11-06T07:53:44.047Z,11.81
2023-11-06T07:54:43.185Z,11.83
2023-11-06T07:55:43.078Z,11.88
2023-11-06T07:56:43.058Z,11.88
2023-11-06T07:57:43.067Z,11.93
2023-11-06T07:58:43.548Z,11.93
2023-11-06T07:59:43.231Z,11.97
2023-11-06T08:00:49.461Z,11.99
2023-11-06T08:01:43.982Z,12.08
2023-11-06T08:02:43.203Z,12.11
2023-11-06T08:03:42.997Z,12.15
2023-11-06T08:04:42.948Z,12.21
2023-11-06T08:05:43.371Z,12.29
2023-11-06T08:06:42.898Z,12.33
2023-11-06T08:07:43.099Z,12.37
2023-11-06T08:08:43.020Z,12.39
2023-11-06T08:09:42.964Z,12.45
2023-11-06T08:10:42.914Z,12.45
2023-11-06T08:11:43.071Z,12.45
2023-11-06T08:12:42.827Z,12.48
2023-11-06T08:13:42.844Z,12.48
2023-11-06T08:14:42.951Z,12.55
2023-11-06T08:15:42.870Z,12.61
2023-11-06T08:16:45.516Z,12.61
2023-11-06T08:17:42.896Z,12.61
2023-11-06T08:18:42.943Z,12.61
2023-11-06T08:19:42.974Z,12.61
2023-11-06T08:20:43.425Z,12.66
2023-11-06T08:21:43.230Z,12.68
2023-11-06T08:22:42.820Z,12.70
2023-11-06T08:23:43.110Z,12.75
2023-11-06T08:24:42.728Z,12.76
2023-11-06T08:25:42.685Z,12.78
2023-11-06T08:26:42.739Z,12.78
2023-11-06T08:27:42.701Z,12.76
2023-11-06T08:28:42.709Z,12.76
2023-11-06T08:29:42.689Z,12.80
2023-11-06T08:30:42.876Z,12.84
2023-11-06T08:31:42.642Z,12.93
2023-11-06T08:32:42.742Z,12.95
2023-11-06T08:33:42.783Z,13.03
2023-11-06T08:34:42.629Z,13.05
2023-11-06T08:35:42.636Z,13.13
2023-11-06T08:36:42.582Z,13.20
2023-11-06T08:37:43.161Z,13.24
2023-11-06T08:38:42.563Z,13.40
2023-11-06T08:39:42.547Z,13.47
2023-11-06T08:40:42.707Z,13.57
2023-11-06T08:41:42.552Z,13.62
2023-11-06T08:42:42.580Z,13.67
2023-11-06T08:43:42.540Z,13.76
2023-11-06T08:44:42.545Z,13.82
2023-11-06T08:45:42.531Z,13.85
2023-11-06T08:46:42.518Z,13.89
2023-11-06T08:47:42.619Z,14.05
2023-11-06T08:48:42.565Z,14.12
2023-11-06T08:49:42.520Z,14.18
2023-11-06T08:50:42.502Z,14.18
2023-11-06T08:51:42.440Z,14.19
2023-11-06T08:52:42.391Z,14.26
2023-11-06T08:53:42.422Z,14.33
2023-11-06T08:54:42.490Z,14.36
2023-11-06T08:55:42.433Z,14.33
2023-11-06T08:56:42.430Z,14.26
2023-11-06T08:57:42.414Z,14.23
2023-11-06T08:58:42.351Z,14.22
2023-11-06T08:59:42.442Z,14.22
2023-11-06T09:00:42.330Z,14.20
2023-11-06T09:01:42.345Z,14.20
2023-11-06T09:02:42.487Z,14.19
2023-11-06T09:03:42.394Z,14.18
2023-11-06T09:04:42.348Z,14.19
2023-11-06T09:05:42.594Z,14.20
2023-11-06T09:06:42.904Z,14.23
2023-11-06T09:07:42.591Z,14.26
2023-11-06T09:08:42.261Z,14.36
2023-11-06T09:09:42.639Z,14.33
2023-11-06T09:10:42.268Z,14.41
2023-11-06T09:11:42.762Z,14.41
2023-11-06T09:12:42.342Z,14.48
2023-11-06T09:13:42.229Z,14.52
2023-11-06T09:14:42.205Z,14.51
2023-11-06T09:15:42.222Z,14.62
2023-11-06T09:16:42.172Z,14.67
2023-11-06T09:17:42.198Z,14.68
2023-11-06T09:18:42.240Z,14.78
2023-11-06T09:19:42.312Z,14.79
2023-11-06T09:20:42.222Z,14.85
2023-11-06T09:21:42.206Z,14.82
2023-11-06T09:22:42.110Z,14.86
2023-11-06T09:23:42.222Z,14.89
2023-11-06T09:24:42.107Z,14.94
2023-11-06T09:25:42.059Z,14.96
2023-11-06T09:26:42.065Z,14.93
2023-11-06T09:27:42.068Z,14.97
2023-11-06T09:28:42.067Z,14.92
2023-11-06T09:29:42.109Z,14.96
2023-11-06T09:30:42.933Z,15.04
2023-11-06T09:31:41.989Z,15.10
2023-11-06T09:32:42.120Z,15.07
2023-11-06T09:33:42.003Z,15.07
2023-11-06T09:34:42.001Z,15.04
2023-11-06T09:35:42.105Z,15.04
2023-11-06T09:36:41.979Z,15.05
2023-11-06T09:37:42.003Z,15.08
2023-11-06T09:38:42.183Z,15.11
2023-11-06T09:39:41.942Z,15.17
2023-11-06T09:40:41.891Z,15.15
2023-11-06T09:41:42.002Z,15.08
2023-11-06T09:42:41.888Z,15.08
2023-11-06T09:43:41.902Z,15.07
2023-11-06T09:44:42.013Z,15.02
2023-11-06T09:45:41.825Z,15.07
2023-11-06T09:46:41.977Z,15.11
2023-11-06T09:47:41.864Z,15.15
2023-11-06T09:48:41.943Z,15.12
2023-11-06T09:49:41.813Z,15.12
2023-11-06T09:50:41.871Z,15.15
2023-11-06T09:51:41.950Z,15.18
2023-11-06T09:52:41.736Z,15.18
2023-11-06T09:53:42.477Z,15.25
2023-11-06T09:54:41.741Z,15.27
2023-11-06T09:55:41.859Z,15.32
2023-11-06T09:56:41.749Z,15.36
2023-11-06T09:57:41.716Z,15.37
2023-11-06T09:58:41.725Z,15.32
2023-11-06T09:59:41.782Z,15.29
2023-11-06T10:00:41.667Z,15.25
2023-11-06T10:01:41.709Z,15.26
2023-11-06T10:02:41.743Z,15.35
2023-11-06T10:03:41.755Z,15.47
2023-11-06T10:04:41.740Z,15.51
2023-11-06T10:05:41.712Z,15.57
2023-11-06T10:06:41.727Z,15.60
2023-11-06T10:07:41.655Z,15.59
2023-11-06T10:08:41.810Z,15.66
2023-11-06T10:09:41.651Z,15.73
2023-11-06T10:10:41.782Z,15.80
2023-11-06T10:11:41.659Z,15.81
2023-11-06T10:12:41.536Z,15.83
2023-11-06T10:13:41.560Z,15.90
2023-11-06T10:14:41.639Z,15.92
2023-11-06T10:15:41.543Z,15.90
2023-11-06T10:16:41.558Z,15.90
2023-11-06T10:17:41.578Z,15.87
2023-11-06T10:18:41.701Z,15.84
2023-11-06T10:19:41.457Z,15.83
2023-11-06T10:20:41.510Z,15.90
2023-11-06T10:21:41.432Z,16.02
2023-11-06T10:22:41.477Z,16.08
2023-11-06T10:23:41.436Z,16.16
2023-11-06T10:24:41.389Z,16.13
2023-11-06T10:25:41.841Z,16.16
2023-11-06T10:26:41.411Z,16.09
2023-11-06T10:27:41.345Z,16.12
2023-11-06T10:28:42.034Z,16.08
2023-11-06T10:29:41.390Z,16.13
2023-11-06T10:30:41.487Z,16.09
2023-11-06T10:31:41.322Z,16.08
2023-11-06T10:32:41.797Z,15.99
2023-11-06T10:33:41.505Z,15.92
2023-11-06T10:34:41.465Z,15.85
2023-11-06T10:35:41.309Z,15.85
2023-11-06T10:36:41.493Z,15.81
2023-11-06T10:37:41.420Z,15.84
2023-11-06T10:38:41.227Z,15.81
2023-11-06T10:39:41.444Z,15.80
2023-11-06T10:40:41.252Z,15.80
2023-11-06T10:41:41.221Z,15.75
2023-11-06T10:42:41.939Z,15.78
2023-11-06T10:43:53.130Z,15.85
2023-11-06T10:44:42.250Z,15.92
2023-11-06T10:45:41.169Z,15.94
2023-11-06T10:46:41.184Z,15.91
2023-11-06T10:47:41.343Z,15.92
2023-11-06T10:48:42.179Z,15.88
2023-11-06T10:49:41.180Z,15.90
2023-11-06T10:50:41.179Z,15.85
2023-11-06T10:51:41.123Z,15.87
2023-11-06T10:52:41.136Z,15.81
2023-11-06T10:53:41.213Z,15.76
2023-11-06T10:54:41.329Z,15.76
2023-11-06T10:55:41.138Z,15.76
2023-11-06T10:56:41.117Z,15.80
2023-11-06T10:57:41.053Z,15.83
2023-11-06T10:58:41.065Z,15.88
2023-11-06T10:59:41.261Z,15.90
2023-11-06T11:00:41.891Z,15.94
2023-11-06T11:01:41.068Z,15.94
2023-11-06T11:02:41.156Z,15.92
2023-11-06T11:03:41.030Z,15.91
2023-11-06T11:04:41.038Z,15.87
2023-11-06T11:05:42.164Z,15.88
2023-11-06T11:06:41.125Z,15.98
2023-11-06T11:07:40.992Z,16.02
2023-11-06T11:08:41.004Z,16.06
2023-11-06T11:09:40.945Z,16.10
2023-11-06T11:10:40.900Z,16.12
2023-11-06T11:11:40.933Z,16.13
2023-11-06T11:12:40.850Z,16.18
2023-11-06T11:13:40.828Z,16.24
2023-11-06T11:14:41.723Z,16.24
2023-11-06T11:15:40.824Z,16.18
2023-11-06T11:16:40.978Z,16.21
2023-11-06T11:17:40.921Z,16.18
2023-11-06T11:18:40.883Z,16.09
2023-11-06T11:19:41.117Z,16.10
2023-11-06T11:20:41.360Z,16.13
2023-11-06T11:21:40.799Z,16.12
2023-11-06T11:22:40.849Z,16.32
2023-11-06T11:23:42.329Z,16.97
2023-11-06T11:24:40.838Z,17.10
2023-11-06T11:25:40.799Z,16.95
2023-11-06T11:26:40.721Z,16.84
2023-11-06T11:27:40.672Z,16.76
2023-11-06T11:28:40.855Z,16.64
2023-11-06T11:29:40.709Z,16.55
2023-11-06T11:30:41.593Z,16.44
2023-11-06T11:31:40.825Z,16.40
2023-11-06T11:32:40.753Z,16.37
2023-11-06T11:33:40.686Z,16.28
2023-11-06T11:34:40.845Z,16.21
2023-11-06T11:35:41.258Z,16.18
2023-11-06T11:36:40.598Z,16.13
2023-11-06T11:37:40.582Z,16.03
2023-11-06T11:38:40.737Z,15.96
2023-11-06T11:39:40.561Z,15.91
2023-11-06T11:40:40.579Z,15.87
2023-11-06T11:41:40.535Z,15.83
2023-11-06T11:42:40.649Z,15.76
2023-11-06T11:43:40.488Z,15.72
2023-11-06T11:44:40.520Z,15.67
2023-11-06T11:45:40.609Z,15.62
2023-11-06T11:46:40.535Z,15.57
2023-11-06T11:47:40.510Z,15.54
2023-11-06T11:48:40.448Z,15.47
2023-11-06T11:49:40.484Z,15.45
2023-11-06T11:50:40.557Z,15.43
2023-11-06T11:51:40.674Z,15.39
2023-11-06T11:52:40.431Z,15.33
2023-11-06T11:53:40.458Z,15.32
2023-11-06T11:54:40.516Z,15.33
2023-11-06T11:55:40.382Z,15.30
2023-11-06T11:56:40.458Z,15.27
2023-11-06T11:57:40.370Z,15.25
2023-11-06T11:58:40.376Z,15.22
2023-11-06T11:59:40.368Z,15.19
2023-11-06T12:00:40.406Z,15.23
2023-11-06T12:01:40.362Z,15.25
2023-11-06T12:02:40.379Z,15.17
2023-11-06T12:03:40.389Z,15.17
2023-11-06T12:04:40.639Z,15.18
2023-11-06T12:05:40.382Z,15.15
2023-11-06T12:06:40.282Z,15.14
2023-11-06T12:07:40.272Z,15.12
2023-11-06T12:08:40.400Z,15.14
2023-11-06T12:09:40.247Z,15.15
2023-11-06T12:10:40.215Z,15.19
2023-11-06T12:11:40.321Z,15.26
2023-11-06T12:12:40.419Z,15.35
2023-11-06T12:13:40.178Z,15.41
2023-11-06T12:14:40.500Z,15.54
2023-11-06T12:15:40.148Z,16.28
2023-11-06T12:16:40.138Z,16.18
2023-11-06T12:17:40.651Z,16.06
2023-11-06T12:18:40.326Z,16.21
2023-11-06T12:19:40.517Z,16.10
2023-11-06T12:20:40.325Z,15.99
2023-11-06T12:21:40.162Z,16.76
2023-11-06T12:22:40.650Z,16.59
2023-11-06T12:23:40.131Z,16.41
2023-11-06T12:24:40.199Z,16.46
2023-11-06T12:25:40.046Z,16.32
2023-11-06T12:26:40.118Z,16.26
2023-11-06T12:27:40.107Z,16.25
2023-11-06T12:28:39.994Z,16.21
2023-11-06T12:29:40.327Z,16.13
2023-11-06T12:30:39.972Z,16.08
2023-11-06T12:31:39.990Z,16.02
2023-11-06T12:32:40.094Z,16.12
2023-11-06T12:33:40.773Z,16.29
2023-11-06T12:34:39.971Z,16.18
2023-11-06T12:35:40.164Z,16.32
2023-11-06T12:36:40.020Z,16.58
2023-11-06T12:37:39.961Z,17.46
2023-11-06T12:38:40.627Z,17.19
2023-11-06T12:39:39.936Z,16.91
2023-11-06T12:40:39.991Z,16.68
2023-11-06T12:41:40.187Z,16.57
2023-11-06T12:42:39.876Z,16.47
2023-11-06T12:43:39.839Z,16.46
2023-11-06T12:44:40.548Z,16.37
2023-11-06T12:45:39.959Z,16.31
2023-11-06T12:46:43.094Z,16.26
2023-11-06T12:47:40.860Z,16.26
2023-11-06T12:48:39.933Z,16.21
2023-11-06T12:49:39.780Z,16.17
2023-11-06T12:50:39.819Z,16.12
2023-11-06T12:51:39.824Z,16.08
2023-11-06T12:52:39.745Z,16.02